createdAt,value
2023-03-31T00:02:16.412Z,6.83
2023-03-31T00:04:53.040Z,10.33
2023-03-31T00:07:24.659Z,6.07
2023-03-31T00:10:07.099Z,6.53
2023-03-31T00:12:47.320Z,7.77
2023-03-31T00:15:16.402Z,7.07
2023-03-31T00:17:51.255Z,8.17
2023-03-31T00:20:20.572Z,7.43
2023-03-31T00:22:49.257Z,9.27
2023-03-31T00:25:17.632Z,7.40
2023-03-31T00:27:47.186Z,6.63
2023-03-31T00:30:17.187Z,7.73
2023-03-31T00:32:49.367Z,9.73
2023-03-31T00:35:18.239Z,10.00
2023-03-31T00:37:47.613Z,10.17
2023-03-31T00:40:15.917Z,9.80
2023-03-31T00:42:44.818Z,7.33
2023-03-31T00:45:16.827Z,7.17
2023-03-31T00:47:52.283Z,8.07
2023-03-31T00:50:27.607Z,8.63
2023-03-31T00:52:58.388Z,10.47
2023-03-31T00:55:33.620Z,8.83
2023-03-31T00:58:02.429Z,7.90
2023-03-31T01:00:31.947Z,8.93
2023-03-31T01:03:10.610Z,11.13
2023-03-31T01:05:50.516Z,7.57
2023-03-31T01:08:22.615Z,8.60
2023-03-31T01:10:57.616Z,7.33
2023-03-31T01:13:28.128Z,9.70
2023-03-31T01:15:57.487Z,7.17
2023-03-31T01:18:26.069Z,9.33
2023-03-31T01:21:31.039Z,9.17
2023-03-31T01:24:26.743Z,10.50
2023-03-31T01:27:26.430Z,14.77
2023-03-31T01:30:23.618Z,9.40
2023-03-31T01:33:40.812Z,8.47
2023-03-31T01:36:17.392Z,7.67
2023-03-31T01:39:02.318Z,7.03
2023-03-31T01:41:49.447Z,5.80
2023-03-31T01:44:27.348Z,6.00
2023-03-31T01:46:59.297Z,4.97
2023-03-31T01:49:42.508Z,4.23
2023-03-31T01:52:40.256Z,8.70
2023-03-31T01:55:47.380Z,7.37
2023-03-31T01:58:15.360Z,6.13
2023-03-31T02:00:57.438Z,5.07
2023-03-31T02:03:30.417Z,5.33
2023-03-31T02:06:04.173Z,4.20
2023-03-31T02:08:36.890Z,4.30
2023-03-31T02:11:06.053Z,3.23
2023-03-31T02:13:40.258Z,6.20
2023-03-31T02:16:15.927Z,3.87
2023-03-31T02:18:44.968Z,7.13
2023-03-31T02:21:15.253Z,5.53
2023-03-31T02:23:45.033Z,4.90
2023-03-31T02:26:21.093Z,6.03
2023-03-31T02:28:49.157Z,7.00
2023-03-31T02:31:49.435Z,5.30
2023-03-31T02:34:17.786Z,7.30
2023-03-31T02:36:49.638Z,5.83
2023-03-31T02:39:27.920Z,5.27
2023-03-31T02:41:57.271Z,4.47
2023-03-31T02:44:25.429Z,5.77
2023-03-31T02:46:54.204Z,7.83
2023-03-31T02:49:22.800Z,7.03
2023-03-31T02:52:12.711Z,7.13
2023-03-31T02:55:10.243Z,8.57
2023-03-31T02:58:24.157Z,12.27
2023-03-31T03:01:09.818Z,8.50
2023-03-31T03:03:50.628Z,13.83
2023-03-31T03:06:40.293Z,9.50
2023-03-31T03:09:39.632Z,8.00
2023-03-31T03:12:25.324Z,11.13
2023-03-31T03:15:29.907Z,22.27
2023-03-31T03:17:58.761Z,15.87
2023-03-31T03:20:29.245Z,14.33
2023-03-31T03:22:59.664Z,22.87
2023-03-31T03:25:28.113Z,23.03
2023-03-31T03:27:57.928Z,22.17
2023-03-31T03:30:26.140Z,21.07
2023-03-31T03:32:56.545Z,23.13
2023-03-31T03:35:25.933Z,31.87
2023-03-31T03:37:54.596Z,38.70
2023-03-31T03:40:23.140Z,36.60
2023-03-31T03:42:52.202Z,39.67
2023-03-31T03:45:20.968Z,41.50
2023-03-31T03:47:49.599Z,56.87
2023-03-31T03:50:20.628Z,40.60
2023-03-31T03:52:49.808Z,51.70
2023-03-31T03:55:24.104Z,59.77
2023-03-31T03:57:52.932Z,43.33
2023-03-31T04:00:21.374Z,49.03
2023-03-31T04:02:49.567Z,42.13
2023-03-31T04:05:18.062Z,39.03
2023-03-31T04:07:46.371Z,44.97
2023-03-31T04:10:16.254Z,49.27
2023-03-31T04:12:44.867Z,42.80
2023-03-31T04:15:15.387Z,37.37
2023-03-31T04:17:51.211Z,30.30
2023-03-31T04:20:19.615Z,28.60
2023-03-31T04:22:52.732Z,27.77
2023-03-31T04:25:23.206Z,22.63
2023-03-31T04:27:55.358Z,19.03
2023-03-31T04:30:31.302Z,26.33
2023-03-31T04:33:01.579Z,23.93
2023-03-31T04:35:49.954Z,25.17
2023-03-31T04:38:21.761Z,22.30
2023-03-31T04:40:51.721Z,28.20
2023-03-31T04:43:21.642Z,23.03
2023-03-31T04:45:50.890Z,23.93
2023-03-31T04:48:20.494Z,25.67
2023-03-31T04:50:48.812Z,29.23
2023-03-31T04:53:16.948Z,24.70
2023-03-31T04:55:52.717Z,26.17
2023-03-31T04:58:20.904Z,34.33
2023-03-31T05:00:54.450Z,34.97
2023-03-31T05:03:26.792Z,66.88
2023-03-31T05:06:18.370Z,91.97
2023-03-31T05:08:48.651Z,101.70
2023-03-31T05:11:21.461Z,110.72
2023-03-31T05:13:50.424Z,100.32
2023-03-31T05:16:18.731Z,88.00
2023-03-31T05:18:48.959Z,78.72
2023-03-31T05:21:20.539Z,70.50
2023-03-31T05:23:50.286Z,48.85
2023-03-31T05:26:18.845Z,33.95
2023-03-31T05:28:49.847Z,36.15
2023-03-31T05:31:18.690Z,25.92
2023-03-31T05:33:47.484Z,32.38
2023-03-31T05:36:19.782Z,23.00
2023-03-31T05:38:48.042Z,22.90
2023-03-31T05:41:21.136Z,20.77
2023-03-31T05:43:49.785Z,17.20
2023-03-31T05:46:18.967Z,20.38
2023-03-31T05:48:50.886Z,15.10
2023-03-31T05:51:19.235Z,15.82
2023-03-31T05:53:47.450Z,16.73
2023-03-31T05:56:15.781Z,14.77
2023-03-31T05:58:46.378Z,14.57
2023-03-31T06:01:20.026Z,12.73
2023-03-31T06:04:13.989Z,19.40
2023-03-31T06:06:44.953Z,16.83
2023-03-31T06:09:14.278Z,18.42
2023-03-31T06:11:44.322Z,19.85
2023-03-31T06:14:12.783Z,23.98
2023-03-31T06:16:41.060Z,16.25
2023-03-31T06:19:09.951Z,17.23
2023-03-31T06:21:38.911Z,14.73
2023-03-31T06:24:09.126Z,19.93
2023-03-31T06:26:38.396Z,15.20
2023-03-31T06:29:06.725Z,18.33
2023-03-31T06:31:35.774Z,12.63
2023-03-31T06:34:06.099Z,12.27
2023-03-31T06:36:34.567Z,11.43
2023-03-31T06:39:03.296Z,10.10
2023-03-31T06:41:31.512Z,13.23
2023-03-31T06:43:59.710Z,14.50
2023-03-31T06:46:28.427Z,11.63
2023-03-31T06:48:59.505Z,16.27
2023-03-31T06:51:29.254Z,21.27
2023-03-31T06:53:58.972Z,12.23
2023-03-31T06:56:28.738Z,12.20
2023-03-31T06:58:57.139Z,13.33
2023-03-31T07:01:26.470Z,13.30
2023-03-31T07:03:58.179Z,13.80
2023-03-31T07:06:26.743Z,15.00
2023-03-31T07:08:54.796Z,10.23
2023-03-31T07:11:22.993Z,14.57
2023-03-31T07:13:51.874Z,8.63
2023-03-31T07:16:20.511Z,8.77
2023-03-31T07:18:55.174Z,14.87
2023-03-31T07:21:23.469Z,11.07
2023-03-31T07:23:52.419Z,15.67
2023-03-31T07:26:21.841Z,10.17
2023-03-31T07:28:52.345Z,10.97
2023-03-31T07:31:23.654Z,6.87
2023-03-31T07:33:54.567Z,12.73
2023-03-31T07:36:24.518Z,13.13
2023-03-31T07:38:57.104Z,10.80
2023-03-31T07:41:26.737Z,8.20
2023-03-31T07:43:55.385Z,10.03
2023-03-31T07:46:26.508Z,12.63
2023-03-31T07:48:55.938Z,14.10
2023-03-31T07:51:27.623Z,9.83
2023-03-31T07:53:58.661Z,15.33
2023-03-31T07:56:27.776Z,8.67
2023-03-31T07:58:58.863Z,8.30
2023-03-31T08:01:30.293Z,8.87
2023-03-31T08:04:00.266Z,9.33
2023-03-31T08:06:31.746Z,13.00
2023-03-31T08:09:00.621Z,6.40
2023-03-31T08:11:29.023Z,8.93
2023-03-31T08:13:57.434Z,9.23
2023-03-31T08:16:25.790Z,6.07
2023-03-31T08:18:54.922Z,9.33
2023-03-31T08:21:24.608Z,8.83
2023-03-31T08:23:57.107Z,4.37
2023-03-31T08:26:28.137Z,6.63
2023-03-31T08:28:59.725Z,10.13
2023-03-31T08:31:29.491Z,10.37
2023-03-31T08:33:57.842Z,5.47
2023-03-31T08:36:27.676Z,8.33
2023-03-31T08:38:57.812Z,9.07
2023-03-31T08:42:03.395Z,8.87
2023-03-31T08:44:38.187Z,5.67
2023-03-31T08:47:10.715Z,30.57
2023-03-31T08:49:46.062Z,9.40
2023-03-31T08:52:25.115Z,9.27
2023-03-31T08:54:59.609Z,11.37
2023-03-31T08:57:43.646Z,7.37
2023-03-31T09:00:18.214Z,7.17
2023-03-31T09:03:17.499Z,8.43
2023-03-31T09:06:02.765Z,5.43
2023-03-31T09:08:40.122Z,5.83
2023-03-31T09:11:31.384Z,6.27
2023-03-31T09:14:18.877Z,5.07
2023-03-31T09:16:47.585Z,6.47
2023-03-31T09:19:23.509Z,5.17
2023-03-31T09:21:54.088Z,6.60
2023-03-31T09:24:32.762Z,3.80
2023-03-31T09:27:07.985Z,8.23
2023-03-31T09:30:10.312Z,9.80
2023-03-31T09:32:44.448Z,11.37
2023-03-31T09:35:23.081Z,9.40
2023-03-31T09:37:53.263Z,36.63
2023-03-31T09:40:24.361Z,9.90
2023-03-31T09:42:58.952Z,6.73
2023-03-31T09:45:26.967Z,10.50
2023-03-31T09:48:07.037Z,12.67
2023-03-31T09:50:47.482Z,13.40
2023-03-31T09:53:20.299Z,12.93
2023-03-31T09:55:53.067Z,8.80
2023-03-31T09:58:25.214Z,15.67
2023-03-31T10:00:58.990Z,18.20
2023-03-31T10:03:37.147Z,7.43
2023-03-31T10:06:11.871Z,7.60
2023-03-31T10:08:56.014Z,5.67
2023-03-31T10:11:27.910Z,6.37
2023-03-31T10:14:04.140Z,8.07
2023-03-31T10:16:57.486Z,8.07
2023-03-31T10:19:25.641Z,10.37
2023-03-31T10:22:22.121Z,8.03
2023-03-31T10:24:51.944Z,12.00
2023-03-31T10:27:29.479Z,9.57
2023-03-31T10:30:05.592Z,9.77
2023-03-31T10:32:44.203Z,8.63
2023-03-31T10:35:30.234Z,55.03
2023-03-31T10:38:00.470Z,8.73
2023-03-31T10:40:30.421Z,14.77
2023-03-31T10:43:04.208Z,19.60
2023-03-31T10:45:42.457Z,12.07
2023-03-31T10:48:26.975Z,10.20
2023-03-31T10:51:00.374Z,10.00
2023-03-31T10:53:42.448Z,8.07
2023-03-31T10:56:15.812Z,12.40
2023-03-31T10:59:05.453Z,7.83
2023-03-31T11:02:02.192Z,17.63
2023-03-31T11:04:45.150Z,8.60
2023-03-31T11:07:49.126Z,9.53
2023-03-31T11:10:17.606Z,7.90
2023-03-31T11:13:00.216Z,12.37
2023-03-31T11:15:42.979Z,10.43
2023-03-31T11:18:19.139Z,9.53
2023-03-31T11:21:12.431Z,7.67
2023-03-31T11:23:44.450Z,6.90
2023-03-31T11:26:58.326Z,5.80
2023-03-31T11:29:41.629Z,7.93
2023-03-31T11:32:34.697Z,8.93
2023-03-31T11:35:17.190Z,26.27
2023-03-31T11:38:07.074Z,8.87
2023-03-31T11:40:43.875Z,15.83
2023-03-31T11:43:22.819Z,11.43
2023-03-31T11:46:06.095Z,12.60
2023-03-31T11:49:00.103Z,16.00
2023-03-31T11:51:40.587Z,12.17
2023-03-31T11:54:15.612Z,9.67
2023-03-31T11:56:44.215Z,10.60
2023-03-31T11:59:15.962Z,10.00
2023-03-31T12:01:54.704Z,5.13
2023-03-31T12:04:41.133Z,10.37
2023-03-31T12:07:39.765Z,29.07
2023-03-31T12:10:38.409Z,5.00
2023-03-31T12:13:19.039Z,5.40
2023-03-31T12:16:01.874Z,8.20
2023-03-31T12:18:36.304Z,5.17
2023-03-31T12:21:05.974Z,5.90
2023-03-31T12:23:41.198Z,6.27
2023-03-31T12:26:24.377Z,5.47
2023-03-31T12:28:58.901Z,23.67
2023-03-31T12:31:34.257Z,13.63
2023-03-31T12:34:07.961Z,9.77
2023-03-31T12:37:01.097Z,5.10
2023-03-31T12:39:37.641Z,8.50
2023-03-31T12:42:25.205Z,4.00
2023-03-31T12:45:15.062Z,3.80
2023-03-31T12:48:13.762Z,5.20
2023-03-31T12:51:26.126Z,5.27
2023-03-31T12:54:32.356Z,3.97
2023-03-31T12:57:09.533Z,4.63
2023-03-31T12:59:41.327Z,10.67
2023-03-31T13:02:24.505Z,6.13
2023-03-31T13:04:53.938Z,3.57
2023-03-31T13:07:33.831Z,4.20
2023-03-31T13:10:32.363Z,4.47
2023-03-31T13:13:01.998Z,5.30
2023-03-31T13:15:32.818Z,6.50
2023-03-31T13:18:09.612Z,9.17
2023-03-31T13:23:37.556Z,6.27
2023-03-31T13:26:07.503Z,6.33
2023-03-31T13:28:45.928Z,8.43
2023-03-31T13:31:15.272Z,5.40
2023-03-31T13:34:00.504Z,22.73
2023-03-31T13:36:44.257Z,8.73
2023-03-31T13:39:47.747Z,5.27
2023-03-31T13:42:38.125Z,14.63
2023-03-31T13:45:21.344Z,8.50
2023-03-31T13:48:15.730Z,7.00
2023-03-31T13:51:01.944Z,9.07
2023-03-31T13:53:48.569Z,6.20
2023-03-31T13:56:29.542Z,6.30
2023-03-31T13:59:18.763Z,12.90
2023-03-31T14:02:06.445Z,5.07
2023-03-31T14:05:01.473Z,9.93
2023-03-31T14:07:32.327Z,6.03
2023-03-31T14:10:07.555Z,6.93
2023-03-31T14:12:38.374Z,5.57
2023-03-31T14:15:21.661Z,9.30
2023-03-31T14:17:49.686Z,9.63
2023-03-31T14:20:28.204Z,9.30
2023-03-31T14:23:23.982Z,7.83
2023-03-31T14:26:30.618Z,6.43
2023-03-31T14:29:13.041Z,5.43
2023-03-31T14:32:14.357Z,11.03
2023-03-31T14:35:26.917Z,45.80
2023-03-31T14:38:02.250Z,10.57
2023-03-31T14:40:31.164Z,9.23
2023-03-31T14:42:59.484Z,9.73
2023-03-31T14:45:31.878Z,6.40
2023-03-31T14:48:05.878Z,17.27
2023-03-31T14:50:40.111Z,6.93
2023-03-31T14:53:15.683Z,5.57
2023-03-31T14:55:57.878Z,8.23
2023-03-31T14:58:36.142Z,8.00
2023-03-31T15:01:26.612Z,6.13
2023-03-31T15:03:56.270Z,9.30
2023-03-31T15:06:28.357Z,10.23
2023-03-31T15:08:57.965Z,10.03
2023-03-31T15:11:29.208Z,9.80
2023-03-31T15:14:05.067Z,10.47
2023-03-31T15:16:45.119Z,8.93
2023-03-31T15:19:23.263Z,7.40
2023-03-31T15:22:05.193Z,20.67
2023-03-31T15:24:38.409Z,18.53
2023-03-31T15:27:20.369Z,18.23
2023-03-31T15:29:51.030Z,14.33
2023-03-31T15:32:28.381Z,10.17
2023-03-31T15:35:14.892Z,17.93
2023-03-31T15:37:54.649Z,13.87
2023-03-31T15:40:29.939Z,47.33
2023-03-31T15:43:25.961Z,24.23
2023-03-31T15:45:59.482Z,19.87
2023-03-31T15:48:50.543Z,22.90
2023-03-31T15:51:21.163Z,22.67
2023-03-31T15:53:54.237Z,21.07
2023-03-31T15:56:35.047Z,16.47
2023-03-31T15:59:27.675Z,19.27
2023-03-31T16:02:00.308Z,15.43
2023-03-31T16:04:33.582Z,14.40
2023-03-31T16:07:10.456Z,13.50
2023-03-31T16:09:47.047Z,15.70
2023-03-31T16:12:30.607Z,19.10
2023-03-31T16:15:08.247Z,15.87
2023-03-31T16:17:40.582Z,20.10
2023-03-31T16:20:25.926Z,21.90
2023-03-31T16:22:58.311Z,20.90
2023-03-31T16:25:31.320Z,20.07
2023-03-31T16:28:03.320Z,19.70
2023-03-31T16:30:41.708Z,28.60
2023-03-31T16:33:10.858Z,19.87
2023-03-31T16:35:44.795Z,23.57
2023-03-31T16:38:16.508Z,18.13
2023-03-31T16:40:50.758Z,13.53
2023-03-31T16:43:23.821Z,10.33
2023-03-31T16:45:59.497Z,10.53
2023-03-31T16:48:29.467Z,10.63
2023-03-31T16:51:04.585Z,15.10
2023-03-31T16:53:35.102Z,12.60
2023-03-31T16:56:08.595Z,11.60
2023-03-31T16:58:38.228Z,19.50
2023-03-31T17:01:07.903Z,17.33
2023-03-31T17:03:44.468Z,15.83
2023-03-31T17:06:13.831Z,12.53
2023-03-31T17:08:44.150Z,19.93
2023-03-31T17:11:14.661Z,26.50
2023-03-31T17:13:45.169Z,15.63
2023-03-31T17:16:22.120Z,21.73
2023-03-31T17:18:58.179Z,16.60
2023-03-31T17:21:26.472Z,16.50
2023-03-31T17:23:55.408Z,16.63
2023-03-31T17:26:29.552Z,19.80
2023-03-31T17:29:01.371Z,13.83
2023-03-31T17:31:32.469Z,18.47
2023-03-31T17:34:01.861Z,16.93
2023-03-31T17:36:31.400Z,15.70
2023-03-31T17:39:05.370Z,14.70
2023-03-31T17:41:36.893Z,17.87
2023-03-31T17:44:05.368Z,17.77
2023-03-31T17:46:36.482Z,17.97
2023-03-31T17:49:08.642Z,14.50
2023-03-31T17:51:37.656Z,16.10
2023-03-31T17:54:07.337Z,13.77
2023-03-31T17:56:36.876Z,19.67
2023-03-31T17:59:05.685Z,20.97
2023-03-31T18:01:34.745Z,16.20
2023-03-31T18:04:03.151Z,18.37
2023-03-31T18:06:36.086Z,20.90
2023-03-31T18:09:06.274Z,17.23
2023-03-31T18:11:39.177Z,11.00
2023-03-31T18:14:11.494Z,14.07
2023-03-31T18:16:40.347Z,10.93
2023-03-31T18:19:08.573Z,24.83
2023-03-31T18:21:39.776Z,13.37
2023-03-31T18:24:08.454Z,13.63
2023-03-31T18:26:37.116Z,13.07
2023-03-31T18:29:08.190Z,18.13
2023-03-31T18:31:36.389Z,11.50
2023-03-31T18:34:04.665Z,15.63
2023-03-31T18:36:35.786Z,15.20
2023-03-31T18:39:04.600Z,17.63
2023-03-31T18:41:32.909Z,11.77
2023-03-31T18:44:01.426Z,20.03
2023-03-31T18:46:29.738Z,9.43
2023-03-31T18:48:58.602Z,17.67
2023-03-31T18:51:27.494Z,13.37
2023-03-31T18:53:59.789Z,14.43
2023-03-31T18:56:28.455Z,13.97
2023-03-31T18:59:00.260Z,11.13
2023-03-31T19:01:29.582Z,19.33
2023-03-31T19:04:24.305Z,19.03
2023-03-31T19:06:56.379Z,17.43
2023-03-31T19:09:28.247Z,10.83
2023-03-31T19:12:00.307Z,12.37
2023-03-31T19:14:33.002Z,15.33
2023-03-31T19:17:04.912Z,20.43
2023-03-31T19:19:36.677Z,16.93
2023-03-31T19:22:12.640Z,13.13
2023-03-31T19:24:40.906Z,17.57
2023-03-31T19:27:11.278Z,15.93
2023-03-31T19:29:42.792Z,19.07
2023-03-31T19:32:11.006Z,12.17
2023-03-31T19:34:40.316Z,11.23
2023-03-31T19:37:09.961Z,12.67
2023-03-31T19:39:39.005Z,13.20
2023-03-31T19:42:07.563Z,9.40
2023-03-31T19:44:38.195Z,17.07
2023-03-31T19:47:06.604Z,11.23
2023-03-31T19:49:36.284Z,11.47
2023-03-31T19:52:07.592Z,16.30
2023-03-31T19:54:38.129Z,10.30
2023-03-31T19:57:13.736Z,10.27
2023-03-31T19:59:42.709Z,10.87
2023-03-31T20:02:15.981Z,9.77
2023-03-31T20:04:48.111Z,8.57
2023-03-31T20:07:16.343Z,18.10
2023-03-31T20:09:44.728Z,13.63
2023-03-31T20:12:14.615Z,14.10
2023-03-31T20:14:43.956Z,17.10
2023-03-31T20:17:18.537Z,14.63
2023-03-31T20:19:47.562Z,8.27
2023-03-31T20:22:18.394Z,10.27
2023-03-31T20:24:50.609Z,10.47
2023-03-31T20:27:19.038Z,7.73
2023-03-31T20:29:51.250Z,15.97
2023-03-31T20:32:22.778Z,8.17
2023-03-31T20:34:51.362Z,7.70
2023-03-31T20:37:20.660Z,10.50
2023-03-31T20:39:50.149Z,10.97
2023-03-31T20:42:19.220Z,7.47
2023-03-31T20:44:47.885Z,14.50
2023-03-31T20:47:17.909Z,13.13
2023-03-31T20:49:46.760Z,10.83
2023-03-31T20:52:16.032Z,11.87
2023-03-31T20:54:44.499Z,10.60
2023-03-31T20:57:14.784Z,14.63
2023-03-31T20:59:44.311Z,15.90
2023-03-31T21:02:16.736Z,9.43
2023-03-31T21:04:44.903Z,9.33
2023-03-31T21:07:13.755Z,9.20
2023-03-31T21:09:44.622Z,11.67
2023-03-31T21:12:16.123Z,12.10
2023-03-31T21:14:45.738Z,12.40
2023-03-31T21:17:14.127Z,11.87
2023-03-31T21:19:42.425Z,14.30
2023-03-31T21:22:10.581Z,10.90
2023-03-31T21:24:39.042Z,10.30
2023-03-31T21:27:07.273Z,12.53
2023-03-31T21:29:38.410Z,12.47
2023-03-31T21:32:07.464Z,10.30
2023-03-31T21:34:36.847Z,10.93
2023-03-31T21:37:05.214Z,9.00
2023-03-31T21:39:38.877Z,7.93
2023-03-31T21:42:07.073Z,15.10
2023-03-31T21:44:37.839Z,11.70
2023-03-31T21:47:08.255Z,12.60
2023-03-31T21:49:38.222Z,13.23
2023-03-31T21:52:08.863Z,9.43
2023-03-31T21:54:37.017Z,10.67
2023-03-31T21:57:05.495Z,10.80
2023-03-31T21:59:58.591Z,12.30
2023-03-31T22:02:27.226Z,7.77
2023-03-31T22:05:00.072Z,11.00
2023-03-31T22:07:28.560Z,15.83
2023-03-31T22:09:57.133Z,14.47
2023-03-31T22:12:29.621Z,16.03
2023-03-31T22:14:58.101Z,18.63
2023-03-31T22:17:45.639Z,18.03
2023-03-31T22:20:14.320Z,19.70
2023-03-31T22:22:42.623Z,15.93
2023-03-31T22:25:11.005Z,12.27
2023-03-31T22:27:39.208Z,18.10
2023-03-31T22:30:08.294Z,14.80
2023-03-31T22:32:37.158Z,11.00
2023-03-31T22:35:06.014Z,6.83
2023-03-31T22:37:34.228Z,9.90
2023-03-31T22:40:02.329Z,10.97
2023-03-31T22:42:30.721Z,8.80
2023-03-31T22:44:59.810Z,12.43
2023-03-31T22:47:33.852Z,11.17
2023-03-31T22:50:02.609Z,6.80
2023-03-31T22:52:30.851Z,10.57
2023-03-31T22:54:59.579Z,15.13
2023-03-31T22:57:28.294Z,9.03
2023-03-31T22:59:56.997Z,9.60
2023-03-31T23:02:25.197Z,12.73
2023-03-31T23:04:53.438Z,8.47
2023-03-31T23:07:22.670Z,9.90
2023-03-31T23:09:51.505Z,16.90
2023-03-31T23:12:21.775Z,10.90
2023-03-31T23:14:51.513Z,9.40
2023-03-31T23:17:20.010Z,10.70
2023-03-31T23:19:48.153Z,9.90
2023-03-31T23:22:16.419Z,13.47
2023-03-31T23:24:46.875Z,7.37
2023-03-31T23:27:15.868Z,7.43
2023-03-31T23:29:48.152Z,8.90
2023-03-31T23:32:16.695Z,7.57
2023-03-31T23:34:48.234Z,12.60
2023-03-31T23:37:16.977Z,12.13
2023-03-31T23:39:46.013Z,9.67
2023-03-31T23:42:20.052Z,9.83
2023-03-31T23:44:49.541Z,10.63
2023-03-31T23:47:17.520Z,8.20
2023-03-31T23:49:47.953Z,8.40
2023-03-31T23:52:16.201Z,8.30
2023-03-31T23:54:44.673Z,18.87
2023-03-31T23:57:12.900Z,8.63
2023-03-31T23:59:41.650Z,15.80
